sensor_id;sensor_type;location;lat;lon;timestamp;P1;durP1;ratioP1;P2;durP2;ratioP2
66575;SDS011;53428;47.686;16.584;2022-10-26T00:04:07;11.27;;;8.43;;
66575;SDS011;53428;47.686;16.584;2022-10-26T00:09:06;12.38;;;7.18;;
66575;SDS011;53428;47.686;16.584;2022-10-26T00:14:05;12.23;;;6.80;;
66575;SDS011;53428;47.686;16.584;2022-10-26T00:19:05;10.40;;;7.32;;
66575;SDS011;53428;47.686;16.584;2022-10-26T00:24:04;13.38;;;7.32;;
66575;SDS011;53428;47.686;16.584;2022-10-26T00:29:06;13.00;;;6.50;;
66575;SDS011;53428;47.686;16.584;2022-10-26T00:34:06;9.88;;;6.97;;
66575;SDS011;53428;47.686;16.584;2022-10-26T00:39:09;8.90;;;7.03;;
66575;SDS011;53428;47.686;16.584;2022-10-26T00:49:41;12.95;;;6.93;;
66575;SDS011;53428;47.686;16.584;2022-10-26T00:54:44;12.10;;;7.55;;
66575;SDS011;53428;47.686;16.584;2022-10-26T00:59:44;11.43;;;7.97;;
66575;SDS011;53428;47.686;16.584;2022-10-26T01:04:45;10.48;;;7.32;;
66575;SDS011;53428;47.686;16.584;2022-10-26T01:09:45;11.63;;;8.10;;
66575;SDS011;53428;47.686;16.584;2022-10-26T01:14:45;14.07;;;7.40;;
66575;SDS011;53428;47.686;16.584;2022-10-26T01:19:59;9.32;;;7.15;;
66575;SDS011;53428;47.686;16.584;2022-10-26T01:25:37;9.63;;;6.80;;
66575;SDS011;53428;47.686;16.584;2022-10-26T01:30:43;11.98;;;6.43;;
66575;SDS011;53428;47.686;16.584;2022-10-26T01:40:58;10.20;;;6.30;;
66575;SDS011;53428;47.686;16.584;2022-10-26T01:45:59;11.98;;;7.90;;
66575;SDS011;53428;47.686;16.584;2022-10-26T01:51:00;11.05;;;7.15;;
66575;SDS011;53428;47.686;16.584;2022-10-26T01:56:01;13.05;;;7.10;;
66575;SDS011;53428;47.686;16.584;2022-10-26T02:11:38;8.50;;;6.68;;
66575;SDS011;53428;47.686;16.584;2022-10-26T02:16:48;13.32;;;7.93;;
66575;SDS011;53428;47.686;16.584;2022-10-26T02:21:53;12.18;;;7.65;;
66575;SDS011;53428;47.686;16.584;2022-10-26T02:26:58;10.25;;;7.55;;
66575;SDS011;53428;47.686;16.584;2022-10-26T02:31:59;9.38;;;6.18;;
66575;SDS011;53428;47.686;16.584;2022-10-26T02:37:00;5.70;;;4.82;;
66575;SDS011;53428;47.686;16.584;2022-10-26T02:42:02;7.75;;;5.25;;
66575;SDS011;53428;47.686;16.584;2022-10-26T02:47:03;7.18;;;5.30;;
66575;SDS011;53428;47.686;16.584;2022-10-26T02:57:31;7.90;;;5.63;;
66575;SDS011;53428;47.686;16.584;2022-10-26T03:02:40;8.20;;;4.93;;
66575;SDS011;53428;47.686;16.584;2022-10-26T03:07:41;9.90;;;6.00;;
66575;SDS011;53428;47.686;16.584;2022-10-26T03:12:41;9.32;;;6.72;;
66575;SDS011;53428;47.686;16.584;2022-10-26T03:17:40;5.85;;;4.90;;
66575;SDS011;53428;47.686;16.584;2022-10-26T03:22:40;6.47;;;4.75;;
66575;SDS011;53428;47.686;16.584;2022-10-26T03:27:39;9.95;;;6.07;;
66575;SDS011;53428;47.686;16.584;2022-10-26T03:32:38;7.80;;;5.32;;
66575;SDS011;53428;47.686;16.584;2022-10-26T03:37:38;21.27;;;4.40;;
66575;SDS011;53428;47.686;16.584;2022-10-26T03:42:37;6.00;;;4.35;;
66575;SDS011;53428;47.686;16.584;2022-10-26T03:47:43;18.15;;;4.82;;
66575;SDS011;53428;47.686;16.584;2022-10-26T03:52:45;8.07;;;5.30;;
66575;SDS011;53428;47.686;16.584;2022-10-26T03:57:45;25.48;;;16.20;;
66575;SDS011;53428;47.686;16.584;2022-10-26T04:02:45;22.92;;;9.38;;
66575;SDS011;53428;47.686;16.584;2022-10-26T04:07:57;11.82;;;8.98;;
66575;SDS011;53428;47.686;16.584;2022-10-26T04:13:01;28.02;;;11.93;;
66575;SDS011;53428;47.686;16.584;2022-10-26T04:18:00;13.77;;;9.30;;
66575;SDS011;53428;47.686;16.584;2022-10-26T04:23:02;26.05;;;10.73;;
66575;SDS011;53428;47.686;16.584;2022-10-26T04:28:03;13.80;;;8.85;;
66575;SDS011;53428;47.686;16.584;2022-10-26T04:33:04;19.80;;;9.27;;
66575;SDS011;53428;47.686;16.584;2022-10-26T04:38:05;19.80;;;8.27;;
66575;SDS011;53428;47.686;16.584;2022-10-26T04:43:05;9.20;;;6.70;;
66575;SDS011;53428;47.686;16.584;2022-10-26T04:48:05;24.73;;;7.95;;
66575;SDS011;53428;47.686;16.584;2022-10-26T04:53:08;14.57;;;7.18;;
66575;SDS011;53428;47.686;16.584;2022-10-26T04:58:07;16.00;;;7.18;;
66575;SDS011;53428;47.686;16.584;2022-10-26T05:03:08;23.38;;;6.68;;
66575;SDS011;53428;47.686;16.584;2022-10-26T05:08:07;15.95;;;6.80;;
66575;SDS011;53428;47.686;16.584;2022-10-26T05:13:08;49.92;;;6.35;;
66575;SDS011;53428;47.686;16.584;2022-10-26T05:18:07;33.22;;;5.90;;
66575;SDS011;53428;47.686;16.584;2022-10-26T05:23:08;10.60;;;6.07;;
66575;SDS011;53428;47.686;16.584;2022-10-26T05:28:10;23.67;;;6.88;;
66575;SDS011;53428;47.686;16.584;2022-10-26T05:33:11;16.88;;;8.23;;
66575;SDS011;53428;47.686;16.584;2022-10-26T05:38:12;33.63;;;9.50;;
66575;SDS011;53428;47.686;16.584;2022-10-26T05:43:13;154.55;;;90.50;;
66575;SDS011;53428;47.686;16.584;2022-10-26T05:48:12;143.48;;;87.25;;
66575;SDS011;53428;47.686;16.584;2022-10-26T05:53:12;51.58;;;29.08;;
66575;SDS011;53428;47.686;16.584;2022-10-26T05:58:12;144.85;;;73.15;;
66575;SDS011;53428;47.686;16.584;2022-10-26T06:03:26;168.15;;;86.45;;
66575;SDS011;53428;47.686;16.584;2022-10-26T06:08:40;49.67;;;26.92;;
66575;SDS011;53428;47.686;16.584;2022-10-26T06:13:40;45.35;;;22.95;;
66575;SDS011;53428;47.686;16.584;2022-10-26T06:23:56;65.88;;;17.90;;
66575;SDS011;53428;47.686;16.584;2022-10-26T06:29:13;42.95;;;13.13;;
66575;SDS011;53428;47.686;16.584;2022-10-26T06:34:37;76.68;;;15.15;;
66575;SDS011;53428;47.686;16.584;2022-10-26T06:39:46;28.55;;;11.98;;
66575;SDS011;53428;47.686;16.584;2022-10-26T06:44:48;34.00;;;12.63;;
66575;SDS011;53428;47.686;16.584;2022-10-26T06:49:54;22.98;;;10.30;;
66575;SDS011;53428;47.686;16.584;2022-10-26T06:54:55;19.83;;;10.82;;
66575;SDS011;53428;47.686;16.584;2022-10-26T06:59:56;42.28;;;12.48;;
66575;SDS011;53428;47.686;16.584;2022-10-26T07:05:01;69.55;;;14.57;;
66575;SDS011;53428;47.686;16.584;2022-10-26T07:10:00;56.78;;;12.82;;
66575;SDS011;53428;47.686;16.584;2022-10-26T07:14:59;32.10;;;13.30;;
66575;SDS011;53428;47.686;16.584;2022-10-26T07:19:59;66.15;;;13.77;;
66575;SDS011;53428;47.686;16.584;2022-10-26T07:24:58;73.57;;;15.00;;
66575;SDS011;53428;47.686;16.584;2022-10-26T07:29:58;71.35;;;13.95;;
66575;SDS011;53428;47.686;16.584;2022-10-26T07:34:57;43.30;;;14.05;;
66575;SDS011;53428;47.686;16.584;2022-10-26T07:39:57;25.05;;;13.43;;
66575;SDS011;53428;47.686;16.584;2022-10-26T07:45:14;29.35;;;13.73;;
66575;SDS011;53428;47.686;16.584;2022-10-26T07:50:13;25.75;;;12.55;;
66575;SDS011;53428;47.686;16.584;2022-10-26T07:55:13;24.90;;;15.00;;
66575;SDS011;53428;47.686;16.584;2022-10-26T08:00:12;18.23;;;12.23;;
66575;SDS011;53428;47.686;16.584;2022-10-26T08:05:12;19.10;;;13.15;;
66575;SDS011;53428;47.686;16.584;2022-10-26T08:10:12;15.32;;;10.75;;
66575;SDS011;53428;47.686;16.584;2022-10-26T08:15:12;14.95;;;11.10;;
66575;SDS011;53428;47.686;16.584;2022-10-26T08:20:11;14.63;;;10.13;;
66575;SDS011;53428;47.686;16.584;2022-10-26T08:25:10;13.93;;;9.88;;
66575;SDS011;53428;47.686;16.584;2022-10-26T08:30:10;13.98;;;10.95;;
66575;SDS011;53428;47.686;16.584;2022-10-26T08:35:09;19.27;;;12.43;;
66575;SDS011;53428;47.686;16.584;2022-10-26T08:40:10;18.65;;;13.70;;
66575;SDS011;53428;47.686;16.584;2022-10-26T08:45:23;28.75;;;15.43;;
66575;SDS011;53428;47.686;16.584;2022-10-26T08:50:30;22.50;;;14.82;;
66575;SDS011;53428;47.686;16.584;2022-10-26T08:55:39;22.58;;;14.35;;
66575;SDS011;53428;47.686;16.584;2022-10-26T09:00:43;23.02;;;15.65;;
66575;SDS011;53428;47.686;16.584;2022-10-26T09:05:54;46.97;;;14.90;;
66575;SDS011;53428;47.686;16.584;2022-10-26T09:11:25;28.25;;;16.75;;
66575;SDS011;53428;47.686;16.584;2022-10-26T09:16:42;28.45;;;17.55;;
66575;SDS011;53428;47.686;16.584;2022-10-26T09:26:57;22.50;;;15.30;;
66575;SDS011;53428;47.686;16.584;2022-10-26T09:31:59;24.48;;;16.77;;
66575;SDS011;53428;47.686;16.584;2022-10-26T09:37:01;26.08;;;17.90;;
66575;SDS011;53428;47.686;16.584;2022-10-26T09:47:38;16.58;;;13.90;;
66575;SDS011;53428;47.686;16.584;2022-10-26T09:52:42;15.23;;;10.98;;
66575;SDS011;53428;47.686;16.584;2022-10-26T09:57:45;20.48;;;13.65;;
66575;SDS011;53428;47.686;16.584;2022-10-26T10:02:49;10.90;;;9.48;;
66575;SDS011;53428;47.686;16.584;2022-10-26T10:08:08;10.90;;;8.68;;
66575;SDS011;53428;47.686;16.584;2022-10-26T10:13:18;9.63;;;8.10;;
66575;SDS011;53428;47.686;16.584;2022-10-26T10:18:20;9.82;;;7.43;;
66575;SDS011;53428;47.686;16.584;2022-10-26T10:23:28;10.88;;;7.63;;
66575;SDS011;53428;47.686;16.584;2022-10-26T10:28:29;14.13;;;8.80;;
66575;SDS011;53428;47.686;16.584;2022-10-26T10:33:33;28.65;;;16.88;;
66575;SDS011;53428;47.686;16.584;2022-10-26T10:38:41;11.75;;;9.68;;
66575;SDS011;53428;47.686;16.584;2022-10-26T10:43:45;13.48;;;10.52;;
66575;SDS011;53428;47.686;16.584;2022-10-26T10:49:05;15.82;;;12.43;;
66575;SDS011;53428;47.686;16.584;2022-10-26T10:54:34;24.83;;;14.07;;
66575;SDS011;53428;47.686;16.584;2022-10-26T11:10:15;17.02;;;12.20;;
66575;SDS011;53428;47.686;16.584;2022-10-26T11:15:18;16.15;;;12.40;;
66575;SDS011;53428;47.686;16.584;2022-10-26T11:20:21;28.30;;;11.93;;
66575;SDS011;53428;47.686;16.584;2022-10-26T11:25:26;16.27;;;12.38;;
66575;SDS011;53428;47.686;16.584;2022-10-26T11:30:29;19.95;;;14.38;;
66575;SDS011;53428;47.686;16.584;2022-10-26T11:35:35;20.77;;;15.77;;
66575;SDS011;53428;47.686;16.584;2022-10-26T11:46:10;23.25;;;15.32;;
66575;SDS011;53428;47.686;16.584;2022-10-26T11:51:16;20.00;;;14.10;;
66575;SDS011;53428;47.686;16.584;2022-10-26T11:56:49;53.60;;;16.02;;
66575;SDS011;53428;47.686;16.584;2022-10-26T12:01:52;29.73;;;18.63;;
66575;SDS011;53428;47.686;16.584;2022-10-26T12:06:56;19.38;;;15.23;;
66575;SDS011;53428;47.686;16.584;2022-10-26T12:22:28;20.60;;;13.95;;
66575;SDS011;53428;47.686;16.584;2022-10-26T12:27:33;23.38;;;13.05;;
66575;SDS011;53428;47.686;16.584;2022-10-26T12:32:50;27.27;;;12.68;;
66575;SDS011;53428;47.686;16.584;2022-10-26T12:37:58;20.98;;;13.85;;
66575;SDS011;53428;47.686;16.584;2022-10-26T12:48:19;16.65;;;9.70;;
66575;SDS011;53428;47.686;16.584;2022-10-26T12:53:22;14.80;;;10.05;;
66575;SDS011;53428;47.686;16.584;2022-10-26T13:03:51;18.95;;;13.07;;
66575;SDS011;53428;47.686;16.584;2022-10-26T13:08:55;18.60;;;11.13;;
66575;SDS011;53428;47.686;16.584;2022-10-26T13:13:59;16.33;;;11.73;;
66575;SDS011;53428;47.686;16.584;2022-10-26T13:19:01;18.85;;;13.10;;
66575;SDS011;53428;47.686;16.584;2022-10-26T13:24:01;19.35;;;13.20;;
66575;SDS011;53428;47.686;16.584;2022-10-26T13:29:07;25.85;;;16.58;;
66575;SDS011;53428;47.686;16.584;2022-10-26T13:39:19;14.68;;;11.88;;
66575;SDS011;53428;47.686;16.584;2022-10-26T13:44:24;12.23;;;9.98;;
66575;SDS011;53428;47.686;16.584;2022-10-26T13:49:29;13.93;;;9.98;;
66575;SDS011;53428;47.686;16.584;2022-10-26T13:54:45;17.25;;;10.30;;
66575;SDS011;53428;47.686;16.584;2022-10-26T13:59:47;15.95;;;8.82;;
66575;SDS011;53428;47.686;16.584;2022-10-26T14:04:50;15.50;;;9.32;;
66575;SDS011;53428;47.686;16.584;2022-10-26T14:09:52;11.65;;;8.48;;
66575;SDS011;53428;47.686;16.584;2022-10-26T14:15:00;13.23;;;11.00;;
66575;SDS011;53428;47.686;16.584;2022-10-26T14:20:04;17.08;;;13.38;;
66575;SDS011;53428;47.686;16.584;2022-10-26T14:25:16;13.65;;;10.10;;
66575;SDS011;53428;47.686;16.584;2022-10-26T14:35:28;20.73;;;13.77;;
66575;SDS011;53428;47.686;16.584;2022-10-26T14:40:32;19.50;;;14.13;;
66575;SDS011;53428;47.686;16.584;2022-10-26T14:45:34;22.80;;;16.17;;
66575;SDS011;53428;47.686;16.584;2022-10-26T14:50:35;29.08;;;14.02;;
66575;SDS011;53428;47.686;16.584;2022-10-26T14:55:42;30.00;;;17.17;;
66575;SDS011;53428;47.686;16.584;2022-10-26T15:11:25;20.33;;;12.57;;
66575;SDS011;53428;47.686;16.584;2022-10-26T15:16:27;19.85;;;11.73;;
66575;SDS011;53428;47.686;16.584;2022-10-26T15:21:33;35.35;;;19.65;;
66575;SDS011;53428;47.686;16.584;2022-10-26T15:26:41;27.98;;;18.17;;
66575;SDS011;53428;47.686;16.584;2022-10-26T15:31:42;18.85;;;14.95;;
66575;SDS011;53428;47.686;16.584;2022-10-26T15:36:41;23.55;;;16.75;;
66575;SDS011;53428;47.686;16.584;2022-10-26T15:41:44;15.98;;;13.65;;
66575;SDS011;53428;47.686;16.584;2022-10-26T15:46:45;20.75;;;14.48;;
66575;SDS011;53428;47.686;16.584;2022-10-26T15:51:45;23.85;;;14.88;;
66575;SDS011;53428;47.686;16.584;2022-10-26T15:56:50;26.55;;;16.80;;
66575;SDS011;53428;47.686;16.584;2022-10-26T16:01:56;46.08;;;19.15;;
66575;SDS011;53428;47.686;16.584;2022-10-26T16:06:55;22.08;;;14.93;;
66575;SDS011;53428;47.686;16.584;2022-10-26T16:11:59;28.15;;;16.45;;
66575;SDS011;53428;47.686;16.584;2022-10-26T16:16:58;37.80;;;23.80;;
66575;SDS011;53428;47.686;16.584;2022-10-26T16:21:57;25.00;;;17.48;;
66575;SDS011;53428;47.686;16.584;2022-10-26T16:26:57;21.40;;;15.00;;
66575;SDS011;53428;47.686;16.584;2022-10-26T16:31:56;23.30;;;15.50;;
66575;SDS011;53428;47.686;16.584;2022-10-26T16:36:55;32.65;;;21.33;;
66575;SDS011;53428;47.686;16.584;2022-10-26T16:41:55;38.35;;;22.55;;
66575;SDS011;53428;47.686;16.584;2022-10-26T16:46:54;38.88;;;22.17;;
66575;SDS011;53428;47.686;16.584;2022-10-26T16:51:53;33.40;;;21.70;;
66575;SDS011;53428;47.686;16.584;2022-10-26T16:56:53;32.00;;;22.73;;
66575;SDS011;53428;47.686;16.584;2022-10-26T17:01:52;34.13;;;22.23;;
66575;SDS011;53428;47.686;16.584;2022-10-26T17:06:51;47.97;;;31.05;;
66575;SDS011;53428;47.686;16.584;2022-10-26T17:11:50;45.78;;;29.35;;
66575;SDS011;53428;47.686;16.584;2022-10-26T17:16:51;50.72;;;35.28;;
66575;SDS011;53428;47.686;16.584;2022-10-26T17:21:50;51.17;;;32.40;;
66575;SDS011;53428;47.686;16.584;2022-10-26T17:26:49;47.47;;;30.80;;
66575;SDS011;53428;47.686;16.584;2022-10-26T17:31:49;49.03;;;31.23;;
66575;SDS011;53428;47.686;16.584;2022-10-26T17:36:48;52.30;;;32.60;;
66575;SDS011;53428;47.686;16.584;2022-10-26T17:41:47;81.80;;;40.08;;
66575;SDS011;53428;47.686;16.584;2022-10-26T17:46:46;53.55;;;32.75;;
66575;SDS011;53428;47.686;16.584;2022-10-26T17:51:45;42.53;;;28.50;;
66575;SDS011;53428;47.686;16.584;2022-10-26T17:56:45;39.42;;;26.40;;
66575;SDS011;53428;47.686;16.584;2022-10-26T18:01:44;37.33;;;23.83;;
66575;SDS011;53428;47.686;16.584;2022-10-26T18:06:44;44.25;;;30.20;;
66575;SDS011;53428;47.686;16.584;2022-10-26T18:11:43;42.95;;;26.50;;
66575;SDS011;53428;47.686;16.584;2022-10-26T18:16:42;48.20;;;29.67;;
66575;SDS011;53428;47.686;16.584;2022-10-26T18:21:41;38.05;;;24.88;;
66575;SDS011;53428;47.686;16.584;2022-10-26T18:26:41;35.67;;;24.77;;
66575;SDS011;53428;47.686;16.584;2022-10-26T18:31:42;33.97;;;24.50;;
66575;SDS011;53428;47.686;16.584;2022-10-26T18:36:42;35.63;;;24.33;;
66575;SDS011;53428;47.686;16.584;2022-10-26T18:41:41;32.30;;;22.05;;
66575;SDS011;53428;47.686;16.584;2022-10-26T18:46:40;38.65;;;24.33;;
66575;SDS011;53428;47.686;16.584;2022-10-26T18:51:43;40.17;;;23.88;;
66575;SDS011;53428;47.686;16.584;2022-10-26T18:56:42;37.05;;;24.85;;
66575;SDS011;53428;47.686;16.584;2022-10-26T19:01:41;34.60;;;25.60;;
66575;SDS011;53428;47.686;16.584;2022-10-26T19:06:42;32.63;;;24.13;;
66575;SDS011;53428;47.686;16.584;2022-10-26T19:11:44;36.17;;;23.65;;
66575;SDS011;53428;47.686;16.584;2022-10-26T19:16:44;43.22;;;29.95;;
66575;SDS011;53428;47.686;16.584;2022-10-26T19:21:46;33.45;;;24.15;;
66575;SDS011;53428;47.686;16.584;2022-10-26T19:26:47;30.65;;;21.80;;
66575;SDS011;53428;47.686;16.584;2022-10-26T19:31:49;29.50;;;21.58;;
66575;SDS011;53428;47.686;16.584;2022-10-26T19:36:50;29.38;;;19.92;;
66575;SDS011;53428;47.686;16.584;2022-10-26T19:41:50;28.73;;;19.02;;
66575;SDS011;53428;47.686;16.584;2022-10-26T19:46:49;31.88;;;22.75;;
66575;SDS011;53428;47.686;16.584;2022-10-26T19:51:48;29.30;;;21.10;;
66575;SDS011;53428;47.686;16.584;2022-10-26T19:56:48;26.73;;;18.83;;
66575;SDS011;53428;47.686;16.584;2022-10-26T20:01:47;34.85;;;22.85;;
66575;SDS011;53428;47.686;16.584;2022-10-26T20:06:46;36.78;;;24.50;;
66575;SDS011;53428;47.686;16.584;2022-10-26T20:11:45;40.97;;;25.60;;
66575;SDS011;53428;47.686;16.584;2022-10-26T20:16:45;37.08;;;26.17;;
66575;SDS011;53428;47.686;16.584;2022-10-26T20:21:44;34.15;;;22.25;;
66575;SDS011;53428;47.686;16.584;2022-10-26T20:26:44;38.45;;;24.48;;
66575;SDS011;53428;47.686;16.584;2022-10-26T20:31:43;38.78;;;24.95;;
66575;SDS011;53428;47.686;16.584;2022-10-26T20:36:42;34.15;;;23.17;;
66575;SDS011;53428;47.686;16.584;2022-10-26T20:41:42;32.30;;;22.48;;
66575;SDS011;53428;47.686;16.584;2022-10-26T20:46:42;36.13;;;22.58;;
66575;SDS011;53428;47.686;16.584;2022-10-26T20:51:46;32.85;;;20.63;;
66575;SDS011;53428;47.686;16.584;2022-10-26T20:56:52;30.02;;;21.83;;
66575;SDS011;53428;47.686;16.584;2022-10-26T21:01:53;35.50;;;22.90;;
66575;SDS011;53428;47.686;16.584;2022-10-26T21:06:53;33.83;;;21.90;;
66575;SDS011;53428;47.686;16.584;2022-10-26T21:11:52;28.88;;;20.65;;
66575;SDS011;53428;47.686;16.584;2022-10-26T21:16:55;25.05;;;18.77;;
66575;SDS011;53428;47.686;16.584;2022-10-26T21:21:54;32.97;;;21.35;;
66575;SDS011;53428;47.686;16.584;2022-10-26T21:26:54;28.08;;;20.30;;
66575;SDS011;53428;47.686;16.584;2022-10-26T21:31:53;36.50;;;19.50;;
66575;SDS011;53428;47.686;16.584;2022-10-26T21:36:52;27.17;;;21.38;;
66575;SDS011;53428;47.686;16.584;2022-10-26T21:41:52;39.90;;;23.10;;
66575;SDS011;53428;47.686;16.584;2022-10-26T21:46:51;33.75;;;21.83;;
66575;SDS011;53428;47.686;16.584;2022-10-26T21:51:50;38.90;;;24.50;;
66575;SDS011;53428;47.686;16.584;2022-10-26T22:01:52;30.98;;;20.33;;
66575;SDS011;53428;47.686;16.584;2022-10-26T22:06:52;30.70;;;19.88;;
66575;SDS011;53428;47.686;16.584;2022-10-26T22:11:52;33.03;;;21.50;;
66575;SDS011;53428;47.686;16.584;2022-10-26T22:16:51;26.88;;;20.10;;
66575;SDS011;53428;47.686;16.584;2022-10-26T22:21:50;32.88;;;21.42;;
66575;SDS011;53428;47.686;16.584;2022-10-26T22:26:49;29.35;;;20.98;;
66575;SDS011;53428;47.686;16.584;2022-10-26T22:31:49;34.50;;;21.73;;
66575;SDS011;53428;47.686;16.584;2022-10-26T22:36:48;29.17;;;21.10;;
66575;SDS011;53428;47.686;16.584;2022-10-26T22:41:47;28.67;;;19.90;;
66575;SDS011;53428;47.686;16.584;2022-10-26T22:46:47;34.90;;;21.27;;
66575;SDS011;53428;47.686;16.584;2022-10-26T22:51:46;34.47;;;22.52;;
66575;SDS011;53428;47.686;16.584;2022-10-26T22:56:45;36.53;;;25.77;;
66575;SDS011;53428;47.686;16.584;2022-10-26T23:01:45;44.80;;;30.25;;
66575;SDS011;53428;47.686;16.584;2022-10-26T23:06:44;45.45;;;26.90;;
66575;SDS011;53428;47.686;16.584;2022-10-26T23:11:44;42.33;;;28.55;;
66575;SDS011;53428;47.686;16.584;2022-10-26T23:16:45;45.92;;;29.73;;
66575;SDS011;53428;47.686;16.584;2022-10-26T23:21:44;45.35;;;28.77;;
66575;SDS011;53428;47.686;16.584;2022-10-26T23:26:43;40.38;;;28.08;;
66575;SDS011;53428;47.686;16.584;2022-10-26T23:31:43;42.78;;;27.40;;
66575;SDS011;53428;47.686;16.584;2022-10-26T23:36:42;38.35;;;24.67;;
66575;SDS011;53428;47.686;16.584;2022-10-26T23:41:41;36.35;;;25.27;;
66575;SDS011;53428;47.686;16.584;2022-10-26T23:46:40;41.45;;;24.55;;
66575;SDS011;53428;47.686;16.584;2022-10-26T23:51:40;44.33;;;25.98;;
66575;SDS011;53428;47.686;16.584;2022-10-26T23:56:39;33.65;;;22.90;;
